Time;durP1;ratioP1;P1;durP2;ratioP2;P2;SDS_P1;SDS_P2;PMS_P1;PMS_P2;Temp;Humidity;BMP_temperature;BMP_pressure;BME280_temperature;BME280_humidity;BME280_pressure;Samples;Min_cycle;Max_cycle;Signal;HPM_P1;HPM_P2
2022/05/21 00:05:26;;;;;;;10.40;5.50;;;20.20;99.90;;;;;;4942720;29;20516;-91
2022/05/21 00:08:17;;;;;;;7.43;5.43;;;20.20;99.90;;;;;;4942333;29;20456;-90
2022/05/21 00:11:13;;;;;;;6.93;5.33;;;20.20;99.90;;;;;;4944320;29;20454;-89
2022/05/21 00:14:16;;;;;;;6.80;5.33;;;20.10;99.90;;;;;;4950059;29;21036;-89
2022/05/21 00:16:58;;;;;;;8.17;5.67;;;20.10;99.90;;;;;;4952771;29;20533;-89
2022/05/21 00:19:46;;;;;;;8.93;5.90;;;20.00;99.90;;;;;;4945861;29;20492;-90
2022/05/21 00:22:24;;;;;;;7.43;5.33;;;19.90;99.90;;;;;;4948621;29;20466;-91
2022/05/21 00:28:08;;;;;;;6.90;5.13;;;19.80;99.90;;;;;;4968442;23;20972;-90
2022/05/21 00:33:43;;;;;;;6.63;5.10;;;19.70;99.90;;;;;;4970109;28;20481;-91
2022/05/21 00:36:32;;;;;;;8.33;5.60;;;19.80;99.90;;;;;;4964511;28;20535;-90
2022/05/21 00:39:09;;;;;;;7.30;5.10;;;19.70;99.90;;;;;;4965275;29;20453;-90
2022/05/21 00:41:50;;;;;;;9.17;5.37;;;19.60;99.90;;;;;;4978692;28;20461;-90
2022/05/21 00:44:48;;;;;;;7.90;5.00;;;19.50;99.90;;;;;;4963264;28;20461;-90
2022/05/21 00:47:23;;;;;;;9.03;6.00;;;19.60;99.90;;;;;;4961241;28;20476;-90
2022/05/21 00:50:27;;;;;;;8.60;5.20;;;19.60;99.90;;;;;;4968606;28;20532;-90
2022/05/21 00:53:18;;;;;;;7.10;4.90;;;19.40;99.90;;;;;;4966736;28;20480;-90
2022/05/21 00:55:52;;;;;;;5.60;4.30;;;19.50;99.90;;;;;;4976500;28;20456;-89
2022/05/21 01:04:09;;;;;;;8.13;5.30;;;19.30;99.90;;;;;;4959646;28;21035;-89
2022/05/21 01:07:06;;;;;;;5.97;4.10;;;19.30;99.90;;;;;;4977982;28;20460;-88
2022/05/21 01:09:41;;;;;;;11.00;5.10;;;19.20;99.90;;;;;;4979249;28;20430;-91
2022/05/21 01:12:22;;;;;;;6.77;4.70;;;19.10;99.90;;;;;;4963558;28;20563;-90
2022/05/21 01:15:20;;;;;;;7.30;4.20;;;19.10;99.90;;;;;;4965193;28;20505;-90
2022/05/21 01:17:57;;;;;;;9.33;4.40;;;19.10;99.90;;;;;;4961984;28;20465;-90
2022/05/21 01:20:41;;;;;;;6.23;4.20;;;19.00;99.90;;;;;;4963272;28;20457;-89
2022/05/21 01:23:17;;;;;;;6.30;4.10;;;18.90;99.90;;;;;;4963629;28;20424;-89
2022/05/21 01:26:04;;;;;;;4.77;3.73;;;18.90;99.90;;;;;;4963309;28;20822;-89
2022/05/21 01:28:59;;;;;;;6.43;3.27;;;18.80;99.90;;;;;;4979981;23;20500;-89
2022/05/21 01:37:58;;;;;;;4.60;2.87;;;18.90;99.90;;;;;;4934332;29;20438;-87
2022/05/21 01:40:35;;;;;;;4.70;3.37;;;18.80;99.90;;;;;;4976018;28;20500;-87
2022/05/21 01:46:03;;;;;;;7.30;3.30;;;18.80;99.90;;;;;;4966503;29;20443;-88
2022/05/21 01:49:04;;;;;;;5.50;3.23;;;18.70;99.90;;;;;;4961085;28;20481;-87
2022/05/21 01:51:44;;;;;;;5.50;3.00;;;18.70;99.90;;;;;;4959338;28;20473;-88
2022/05/21 01:54:18;;;;;;;5.73;2.97;;;18.80;99.90;;;;;;4962493;28;20464;-87
2022/05/21 01:57:15;;;;;;;4.80;2.97;;;18.60;99.90;;;;;;4962777;28;20504;-88
2022/05/21 02:00:11;;;;;;;4.77;3.10;;;18.60;99.90;;;;;;4961877;28;20463;-87
2022/05/21 02:02:44;;;;;;;5.77;3.20;;;18.70;99.90;;;;;;4960012;28;20516;-88
2022/05/21 02:05:21;;;;;;;4.50;3.37;;;18.60;99.90;;;;;;4958913;28;20540;-88
2022/05/21 02:07:52;;;;;;;5.53;3.70;;;18.50;99.90;;;;;;4957695;28;20483;-88
2022/05/21 02:10:23;;;;;;;4.67;3.30;;;18.50;99.90;;;;;;4958538;28;20487;-88
2022/05/21 02:13:08;;;;;;;5.37;3.37;;;18.40;99.90;;;;;;4959231;28;20481;-88
2022/05/21 02:15:35;;;;;;;5.63;3.37;;;18.30;99.90;;;;;;4968673;28;20457;-89
2022/05/21 02:18:02;;;;;;;5.70;3.90;;;18.40;99.90;;;;;;4958765;28;20461;-89
2022/05/21 02:20:31;;;;;;;8.60;3.53;;;18.30;99.90;;;;;;4980595;28;20489;-88
2022/05/21 02:23:02;;;;;;;6.47;3.37;;;18.30;99.90;;;;;;4968510;28;20449;-89
2022/05/21 02:25:34;;;;;;;6.97;3.30;;;18.20;99.90;;;;;;4957773;28;20437;-88
2022/05/21 02:28:08;;;;;;;5.00;3.20;;;18.20;99.90;;;;;;4965235;28;20552;-88
2022/05/21 02:30:41;;;;;;;6.10;3.97;;;18.20;99.90;;;;;;4962934;28;20505;-89
2022/05/21 02:33:13;;;;;;;4.80;3.33;;;17.90;99.90;;;;;;4957441;28;20472;-88
2022/05/21 02:35:48;;;;;;;4.80;3.30;;;17.90;99.90;;;;;;4957399;28;20465;-88
2022/05/21 02:41:09;;;;;;;7.40;3.53;;;17.70;99.90;;;;;;4957009;29;20502;-88
2022/05/21 02:43:38;;;;;;;5.67;4.00;;;17.90;99.90;;;;;;4957618;28;20468;-88
2022/05/21 02:46:11;;;;;;;5.00;3.10;;;17.80;99.90;;;;;;4961155;28;20444;-88
2022/05/21 02:48:38;;;;;;;6.03;3.70;;;17.80;99.90;;;;;;4957698;28;20513;-88
2022/05/21 02:51:09;;;;;;;4.53;3.00;;;17.80;99.90;;;;;;4960623;28;20460;-88
2022/05/21 02:53:47;;;;;;;5.60;3.40;;;17.70;99.90;;;;;;4959457;28;20571;-88
2022/05/21 02:56:16;;;;;;;5.70;3.37;;;17.70;99.90;;;;;;4957502;28;20449;-87
2022/05/21 02:58:51;;;;;;;5.17;3.80;;;17.70;99.90;;;;;;4956848;28;20466;-88
2022/05/21 03:01:26;;;;;;;5.87;3.80;;;17.60;99.90;;;;;;4968876;28;20441;-88
2022/05/21 03:03:58;;;;;;;6.70;3.20;;;17.50;99.90;;;;;;4969790;28;20460;-89
2022/05/21 03:06:38;;;;;;;6.53;3.00;;;17.50;99.90;;;;;;4957942;28;20508;-89
2022/05/21 03:11:56;;;;;;;5.23;3.37;;;17.60;99.90;;;;;;4957058;29;20488;-88
2022/05/21 03:14:28;;;;;;;8.20;3.90;;;17.40;99.90;;;;;;4967567;28;20512;-88
2022/05/21 03:16:59;;;;;;;5.03;3.47;;;17.40;99.90;;;;;;4957859;28;20450;-88
2022/05/21 03:19:36;;;;;;;5.93;3.50;;;17.40;99.90;;;;;;4957188;28;20485;-88
2022/05/21 03:22:04;;;;;;;5.57;3.53;;;17.40;99.90;;;;;;4957128;28;20856;-88
2022/05/21 03:24:41;;;;;;;6.00;4.43;;;17.50;99.90;;;;;;4956294;28;20471;-88
2022/05/21 03:27:18;;;;;;;5.10;3.80;;;17.60;99.90;;;;;;4961941;28;20445;-87
2022/05/21 03:29:49;;;;;;;9.97;4.30;;;17.40;99.90;;;;;;4977478;28;20464;-87
2022/05/21 03:32:19;;;;;;;5.20;4.27;;;17.30;99.90;;;;;;4961440;28;20491;-88
2022/05/21 03:34:50;;;;;;;6.33;4.20;;;17.20;99.90;;;;;;4956393;28;20952;-88
2022/05/21 03:37:19;;;;;;;8.40;3.77;;;17.10;99.90;;;;;;4956390;28;20980;-88
2022/05/21 03:39:54;;;;;;;5.47;3.60;;;17.20;99.90;;;;;;4956738;28;20499;-88
2022/05/21 03:42:22;;;;;;;4.60;3.67;;;17.00;99.90;;;;;;4956439;28;20417;-89
2022/05/21 03:44:52;;;;;;;5.27;3.60;;;16.90;99.90;;;;;;4956071;28;20820;-89
2022/05/21 03:47:19;;;;;;;6.20;3.33;;;16.90;99.90;;;;;;4957195;28;20504;-89
2022/05/21 03:49:46;;;;;;;5.03;3.60;;;16.90;99.90;;;;;;4955922;28;20461;-88
2022/05/21 03:52:13;;;;;;;6.03;3.37;;;16.80;99.90;;;;;;4956493;28;20477;-88
2022/05/21 03:54:40;;;;;;;5.60;2.97;;;16.70;99.90;;;;;;4956378;28;20457;-88
2022/05/21 03:57:11;;;;;;;6.13;3.30;;;16.70;99.90;;;;;;4956075;28;21059;-88
2022/05/21 03:59:39;;;;;;;5.30;3.53;;;16.70;99.90;;;;;;4958046;28;20508;-88
2022/05/21 04:02:08;;;;;;;5.83;3.67;;;16.60;99.90;;;;;;4956432;28;20456;-88
2022/05/21 04:04:35;;;;;;;6.20;3.70;;;16.60;99.90;;;;;;4957875;28;20437;-88
2022/05/21 04:07:02;;;;;;;5.33;3.43;;;16.60;99.90;;;;;;4957109;28;20453;-88
2022/05/21 04:09:29;;;;;;;4.63;3.23;;;16.50;99.90;;;;;;4956367;28;20496;-88
2022/05/21 04:11:56;;;;;;;9.23;4.00;;;16.60;99.90;;;;;;4961642;28;20519;-88
2022/05/21 04:14:27;;;;;;;4.30;3.10;;;16.50;99.90;;;;;;4959878;28;20529;-89
2022/05/21 04:16:55;;;;;;;5.90;3.33;;;16.60;99.90;;;;;;4959935;28;20909;-89
2022/05/21 04:19:39;;;;;;;5.03;3.60;;;16.70;99.90;;;;;;4959294;28;20868;-89
2022/05/21 04:22:08;;;;;;;5.20;3.70;;;16.60;99.90;;;;;;4960255;28;20457;-89
2022/05/21 04:24:38;;;;;;;9.23;3.23;;;16.70;99.90;;;;;;4960324;28;20445;-89
2022/05/21 04:27:07;;;;;;;4.67;2.83;;;16.60;99.90;;;;;;4968314;28;20516;-88
2022/05/21 04:29:42;;;;;;;4.90;3.50;;;16.70;99.90;;;;;;4962543;28;20489;-89
2022/05/21 04:32:15;;;;;;;5.17;3.07;;;16.60;99.90;;;;;;4958916;28;20480;-88
2022/05/21 04:34:43;;;;;;;6.17;3.43;;;16.60;99.90;;;;;;4960420;28;20880;-89
2022/05/21 04:37:10;;;;;;;5.60;2.83;;;16.50;99.90;;;;;;4975684;28;20452;-88
2022/05/21 04:39:39;;;;;;;4.70;3.20;;;16.50;99.90;;;;;;4978605;28;20457;-88
2022/05/21 04:42:09;;;;;;;5.00;3.17;;;16.60;99.90;;;;;;4960182;28;20449;-88
2022/05/21 04:44:37;;;;;;;5.80;3.20;;;16.60;99.90;;;;;;4960413;28;20437;-88
2022/05/21 04:47:05;;;;;;;6.10;3.80;;;16.70;99.90;;;;;;4966335;28;20456;-88
2022/05/21 04:49:32;;;;;;;6.23;3.57;;;16.70;99.90;;;;;;4964776;28;20453;-89
2022/05/21 04:52:02;;;;;;;5.50;3.47;;;16.70;99.90;;;;;;4960057;28;20481;-87
2022/05/21 04:54:29;;;;;;;4.70;3.30;;;16.70;99.90;;;;;;4963705;28;20457;-87
2022/05/21 04:56:56;;;;;;;4.83;3.17;;;16.80;99.90;;;;;;4961938;28;20524;-87
2022/05/21 04:59:23;;;;;;;7.80;3.47;;;16.80;99.90;;;;;;4959550;28;20473;-87
2022/05/21 05:01:50;;;;;;;5.13;3.37;;;16.80;99.90;;;;;;4959333;28;20944;-87
2022/05/21 05:04:17;;;;;;;10.53;3.50;;;16.80;99.90;;;;;;4959491;28;20564;-87
2022/05/21 05:06:44;;;;;;;7.97;3.13;;;16.90;99.90;;;;;;4959080;28;20437;-87
2022/05/21 05:09:15;;;;;;;5.47;3.27;;;16.90;99.90;;;;;;4958736;28;20876;-88
2022/05/21 05:12:00;;;;;;;4.67;3.30;;;16.90;99.90;;;;;;4958568;28;20449;-88
2022/05/21 05:14:27;;;;;;;5.00;2.87;;;16.90;99.90;;;;;;4958426;28;20449;-88
2022/05/21 05:16:54;;;;;;;4.80;3.33;;;16.80;99.90;;;;;;4958666;28;20533;-88
2022/05/21 05:19:22;;;;;;;5.53;3.17;;;16.90;99.90;;;;;;4958602;28;20548;-87
2022/05/21 05:21:49;;;;;;;6.00;3.20;;;17.00;99.90;;;;;;4958013;28;20452;-88
2022/05/21 05:24:17;;;;;;;5.90;2.50;;;17.00;99.90;;;;;;4958399;28;20453;-88
2022/05/21 05:26:47;;;;;;;5.37;3.10;;;17.00;99.90;;;;;;4958438;28;21020;-90
2022/05/21 05:29:14;;;;;;;5.00;3.20;;;17.10;99.90;;;;;;4957994;28;20492;-89
2022/05/21 05:31:41;;;;;;;5.53;3.03;;;17.10;99.90;;;;;;4959873;28;20441;-89
2022/05/21 05:34:13;;;;;;;7.33;3.03;;;17.10;99.90;;;;;;4961493;28;20858;-89
2022/05/21 05:36:41;;;;;;;9.23;3.20;;;17.00;99.90;;;;;;4963464;28;20477;-89
2022/05/21 05:39:11;;;;;;;6.00;2.70;;;17.20;99.90;;;;;;4958977;28;20496;-89
2022/05/21 05:41:39;;;;;;;7.20;4.50;;;17.20;99.90;;;;;;4960925;28;20448;-89
2022/05/21 05:44:09;;;;;;;4.10;2.87;;;17.20;99.90;;;;;;4976576;28;20433;-88
2022/05/21 05:46:36;;;;;;;5.30;2.50;;;17.30;99.90;;;;;;4981689;28;20447;-89
2022/05/21 05:49:03;;;;;;;8.00;2.83;;;17.40;99.90;;;;;;4967896;28;20465;-88
2022/05/21 05:51:30;;;;;;;4.13;2.40;;;17.50;99.90;;;;;;4959859;28;20809;-86
2022/05/21 05:53:57;;;;;;;7.03;2.67;;;17.60;99.90;;;;;;4963344;28;20544;-88
2022/05/21 05:56:24;;;;;;;3.70;2.57;;;17.60;99.90;;;;;;4959900;28;20449;-88
2022/05/21 06:01:37;;;;;;;4.27;2.20;;;17.70;99.90;;;;;;4964040;29;20412;-88
2022/05/21 06:04:04;;;;;;;5.20;2.53;;;17.80;99.90;;;;;;4962807;28;20473;-88
2022/05/21 06:06:31;;;;;;;6.07;2.63;;;17.80;99.90;;;;;;4960737;28;20548;-88
2022/05/21 06:08:59;;;;;;;4.90;2.53;;;17.80;99.90;;;;;;4957972;28;20483;-87
2022/05/21 06:11:25;;;;;;;4.43;2.27;;;17.90;99.90;;;;;;4959645;28;20461;-87
2022/05/21 06:13:54;;;;;;;4.87;2.40;;;17.80;99.90;;;;;;4959617;28;20593;-87
2022/05/21 06:16:20;;;;;;;4.40;2.47;;;17.90;99.90;;;;;;4958120;28;20453;-87
2022/05/21 06:18:47;;;;;;;5.07;2.17;;;17.80;99.90;;;;;;4958570;28;20496;-87
2022/05/21 06:21:14;;;;;;;4.53;1.70;;;17.80;99.90;;;;;;4959438;28;20468;-87
2022/05/21 06:23:41;;;;;;;8.67;2.43;;;17.70;99.90;;;;;;4959079;28;20998;-87
2022/05/21 06:26:13;;;;;;;4.90;2.30;;;17.80;99.90;;;;;;4959251;28;20461;-87
2022/05/21 06:28:40;;;;;;;4.33;2.10;;;17.90;99.90;;;;;;4958922;28;20919;-88
2022/05/21 06:31:10;;;;;;;3.90;2.07;;;17.90;99.90;;;;;;4964082;28;20471;-88
2022/05/21 06:33:37;;;;;;;10.63;2.30;;;18.10;99.90;;;;;;4973419;28;20466;-87
2022/05/21 06:36:09;;;;;;;5.40;1.90;;;18.10;99.90;;;;;;4969515;28;20485;-87
2022/05/21 06:38:36;;;;;;;4.70;2.17;;;18.20;99.90;;;;;;4962594;28;20842;-87
2022/05/21 06:41:03;;;;;;;3.97;1.57;;;18.30;99.90;;;;;;4959832;28;20489;-85
2022/05/21 06:43:30;;;;;;;8.03;2.23;;;18.40;99.90;;;;;;4960739;28;20457;-85
2022/05/21 06:45:57;;;;;;;4.67;1.73;;;18.40;99.90;;;;;;4959941;28;20453;-86
2022/05/21 06:48:26;;;;;;;3.93;1.80;;;18.40;99.90;;;;;;4959200;28;20613;-86
2022/05/21 06:50:53;;;;;;;5.77;1.60;;;18.40;99.90;;;;;;4959029;28;20891;-86
2022/05/21 06:53:19;;;;;;;3.77;1.60;;;18.60;99.90;;;;;;4977198;28;20560;-87
2022/05/21 06:55:46;;;;;;;3.53;1.90;;;18.60;99.50;;;;;;4978765;28;20491;-86
2022/05/21 06:58:14;;;;;;;4.03;1.50;;;18.70;99.80;;;;;;4958088;28;20560;-87
2022/05/21 07:00:43;;;;;;;4.80;1.70;;;18.70;99.40;;;;;;4957943;28;20453;-86
2022/05/21 07:03:10;;;;;;;3.30;1.60;;;18.70;99.30;;;;;;4962998;28;20973;-87
2022/05/21 07:08:26;;;;;;;4.80;1.90;;;18.80;98.90;;;;;;4958207;29;20456;-87
2022/05/21 07:10:53;;;;;;;3.50;1.70;;;18.80;98.80;;;;;;4959872;28;20461;-87
2022/05/21 07:13:22;;;;;;;4.60;2.00;;;18.80;98.60;;;;;;4958340;28;20517;-87
2022/05/21 07:15:49;;;;;;;4.90;2.03;;;18.80;99.10;;;;;;4958327;28;20555;-87
2022/05/21 07:18:18;;;;;;;6.00;2.00;;;18.80;99.10;;;;;;4958062;28;20489;-87
2022/05/21 07:20:48;;;;;;;3.40;1.40;;;18.90;99.00;;;;;;4957428;28;20508;-87
2022/05/21 07:23:15;;;;;;;4.70;1.40;;;18.90;98.50;;;;;;4957248;28;20532;-87
2022/05/21 07:25:42;;;;;;;6.73;1.43;;;18.90;99.10;;;;;;4956750;28;20455;-86
2022/05/21 07:28:10;;;;;;;4.97;1.77;;;19.00;98.90;;;;;;4959907;28;20480;-87
2022/05/21 07:30:42;;;;;;;3.10;1.30;;;19.00;99.10;;;;;;4984612;23;20473;-88
2022/05/21 07:33:12;;;;;;;3.37;1.40;;;19.10;97.30;;;;;;4964997;29;20497;-89
2022/05/21 07:35:43;;;;;;;3.57;1.20;;;19.20;97.10;;;;;;4960865;28;20524;-88
2022/05/21 07:38:14;;;;;;;4.10;1.20;;;19.40;96.90;;;;;;4961465;29;20418;-88
2022/05/21 07:40:42;;;;;;;3.77;1.70;;;19.50;96.90;;;;;;4959144;28;20559;-89
2022/05/21 07:43:14;;;;;;;3.93;1.53;;;19.40;96.90;;;;;;4960783;28;20847;-89
2022/05/21 07:45:41;;;;;;;4.20;1.20;;;19.40;96.90;;;;;;4962273;28;20464;-89
2022/05/21 07:48:13;;;;;;;2.60;0.90;;;19.50;96.50;;;;;;4966580;28;20469;-88
2022/05/21 07:50:40;;;;;;;4.30;1.27;;;19.70;95.70;;;;;;4966198;28;20489;-88
2022/05/21 07:53:14;;;;;;;3.63;1.20;;;19.70;95.60;;;;;;4967413;28;20875;-88
2022/05/21 07:55:46;;;;;;;3.23;1.00;;;19.60;95.60;;;;;;4966772;28;20463;-88
2022/05/21 07:58:13;;;;;;;3.30;1.20;;;19.50;95.60;;;;;;4965389;28;20465;-88
2022/05/21 08:00:41;;;;;;;3.00;1.00;;;19.50;95.70;;;;;;4963522;28;20499;-88
2022/05/21 08:03:08;;;;;;;3.77;1.40;;;19.50;95.40;;;;;;4964441;28;20894;-88
2022/05/21 08:05:35;;;;;;;3.30;1.20;;;19.30;95.60;;;;;;4964924;28;20484;-88
2022/05/21 08:08:03;;;;;;;3.37;1.00;;;19.30;95.60;;;;;;4970923;28;20519;-89
2022/05/21 08:10:33;;;;;;;3.10;1.17;;;19.30;95.70;;;;;;4977593;28;20449;-90
2022/05/21 08:13:00;;;;;;;3.90;0.93;;;19.40;95.50;;;;;;4969017;28;20463;-89
2022/05/21 08:15:30;;;;;;;2.80;1.10;;;19.50;94.80;;;;;;4963744;28;20460;-88
2022/05/21 08:17:59;;;;;;;3.43;1.20;;;19.70;94.90;;;;;;4962759;28;20508;-88
2022/05/21 08:20:26;;;;;;;5.37;1.60;;;19.80;94.60;;;;;;4962017;28;20448;-89
2022/05/21 08:28:28;;;;;;;3.53;1.40;;;20.10;93.70;;;;;;4964246;29;20441;-88
2022/05/21 08:30:55;;;;;;;2.60;0.90;;;20.10;93.50;;;;;;4965481;28;20899;-89
2022/05/21 08:33:35;;;;;;;3.03;0.87;;;19.90;94.00;;;;;;4969845;29;20460;-88
2022/05/21 08:36:02;;;;;;;4.50;1.40;;;19.60;94.20;;;;;;4980937;28;20470;-88
2022/05/21 08:38:37;;;;;;;2.70;1.13;;;19.70;94.60;;;;;;4980602;28;20471;-89
2022/05/21 08:41:13;;;;;;;3.80;1.10;;;19.80;94.20;;;;;;4965307;28;20484;-87
2022/05/21 08:44:05;;;;;;;2.60;1.00;;;20.10;93.50;;;;;;4961844;28;20468;-88
2022/05/21 08:46:59;;;;;;;3.23;1.03;;;20.20;93.40;;;;;;4962710;28;20440;-88
2022/05/21 08:49:36;;;;;;;3.40;1.27;;;20.20;93.70;;;;;;4964200;28;20468;-88
2022/05/21 08:52:14;;;;;;;3.33;1.10;;;19.80;94.20;;;;;;4967361;28;20476;-89
2022/05/21 08:54:46;;;;;;;4.27;1.40;;;19.70;94.60;;;;;;4971371;28;20501;-88
2022/05/21 08:57:25;;;;;;;2.70;1.00;;;19.80;93.80;;;;;;4972604;28;20453;-88
2022/05/21 09:00:04;;;;;;;3.40;1.50;;;20.00;93.40;;;;;;4978572;28;20440;-88
2022/05/21 09:02:34;;;;;;;4.40;1.30;;;20.20;93.30;;;;;;4977080;28;20480;-87
2022/05/21 09:05:10;;;;;;;3.00;1.03;;;20.30;93.20;;;;;;4967076;28;20796;-87
2022/05/21 09:07:50;;;;;;;4.30;1.70;;;20.50;92.80;;;;;;4964223;28;20456;-88
2022/05/21 09:10:34;;;;;;;3.17;1.00;;;20.50;92.80;;;;;;4965789;28;20505;-89
2022/05/21 09:13:20;;;;;;;3.50;1.30;;;20.50;92.70;;;;;;4973614;28;20461;-88
2022/05/21 09:18:35;;;;;;;3.27;1.03;;;20.40;92.00;;;;;;4962153;29;20409;-88
2022/05/21 09:21:16;;;;;;;3.63;1.07;;;20.30;92.30;;;;;;4963897;28;20496;-88
2022/05/21 09:23:52;;;;;;;2.93;1.10;;;19.90;93.20;;;;;;4962460;28;20425;-88
2022/05/21 09:26:23;;;;;;;3.80;1.57;;;19.80;93.90;;;;;;4962587;28;20445;-88
2022/05/21 09:29:14;;;;;;;5.20;1.37;;;19.90;94.40;;;;;;4962458;28;20497;-88
2022/05/21 09:31:44;;;;;;;2.70;0.90;;;19.90;94.30;;;;;;4962280;28;20484;-89
2022/05/21 09:34:20;;;;;;;4.00;1.00;;;20.20;94.20;;;;;;4962208;28;21003;-88
2022/05/21 09:37:03;;;;;;;3.03;1.23;;;20.10;93.90;;;;;;4963137;28;20469;-88
2022/05/21 09:39:37;;;;;;;3.40;1.10;;;20.00;94.40;;;;;;4968324;29;20456;-89
2022/05/21 09:45:22;;;;;;;3.03;1.40;;;20.10;94.50;;;;;;4973550;28;20812;-88
2022/05/21 09:45:23;;;;;;;3.23;1.07;;;20.20;94.80;;;;;;4962833;29;20429;-89
2022/05/21 09:47:50;;;;;;;2.93;1.30;;;20.10;94.30;;;;;;4960521;29;20418;-88
2022/05/21 09:50:33;;;;;;;3.47;1.20;;;20.10;94.30;;;;;;4964947;28;20442;-89
2022/05/21 09:53:20;;;;;;;4.40;1.40;;;20.20;94.30;;;;;;4975442;29;20445;-88
2022/05/21 09:55:59;;;;;;;3.43;1.30;;;20.00;95.10;;;;;;4962367;28;20448;-88
2022/05/21 09:58:32;;;;;;;3.87;1.37;;;19.90;94.40;;;;;;4961611;28;20496;-88
2022/05/21 10:01:03;;;;;;;4.33;1.47;;;20.00;94.90;;;;;;4960615;28;20485;-88
2022/05/21 10:03:45;;;;;;;3.37;1.27;;;20.10;94.80;;;;;;4961901;28;20871;-88
2022/05/21 10:06:25;;;;;;;4.27;1.17;;;20.30;94.80;;;;;;4960645;28;20456;-88
2022/05/21 10:11:50;;;;;;;3.90;1.63;;;20.50;94.50;;;;;;4961099;28;20456;-88
2022/05/21 10:14:21;;;;;;;3.17;1.23;;;20.60;94.20;;;;;;4961889;28;20481;-89
2022/05/21 10:16:59;;;;;;;3.57;1.33;;;20.30;94.40;;;;;;4963625;28;20434;-89
2022/05/21 10:19:35;;;;;;;3.63;1.43;;;20.30;94.40;;;;;;4976309;28;20437;-88
2022/05/21 10:22:17;;;;;;;3.17;1.23;;;20.30;94.70;;;;;;4977552;28;20496;-88
2022/05/21 10:25:09;;;;;;;3.33;1.40;;;20.60;94.70;;;;;;4978272;28;20445;-87
2022/05/21 10:28:06;;;;;;;4.30;1.30;;;20.60;94.90;;;;;;4970959;28;20462;-90
2022/05/21 10:30:51;;;;;;;3.90;1.83;;;20.80;95.00;;;;;;4973666;28;20458;-87
2022/05/21 10:33:36;;;;;;;9.93;2.17;;;21.10;94.60;;;;;;4967744;28;20418;-88
2022/05/21 10:36:17;;;;;;;3.00;1.10;;;21.30;94.10;;;;;;4971787;28;20444;-88
2022/05/21 10:39:14;;;;;;;4.40;1.43;;;21.40;93.50;;;;;;4965351;28;20441;-88
2022/05/21 10:42:00;;;;;;;5.10;1.33;;;21.50;93.20;;;;;;4963659;28;20477;-88
2022/05/21 10:47:34;;;;;;;3.93;1.30;;;21.50;93.10;;;;;;4963170;28;20438;-88
2022/05/21 10:50:27;;;;;;;3.97;1.20;;;21.50;93.20;;;;;;4964660;28;20520;-88
2022/05/21 10:53:34;;;;;;;4.07;1.30;;;21.50;92.60;;;;;;4962700;29;20453;-88
2022/05/21 10:56:14;;;;;;;3.00;1.10;;;21.20;93.50;;;;;;4960921;28;20449;-89
2022/05/21 10:58:59;;;;;;;4.63;1.43;;;21.10;94.00;;;;;;4967472;28;20492;-89
2022/05/21 11:01:38;;;;;;;4.30;1.50;;;21.10;93.70;;;;;;4966496;28;20619;-88
2022/05/21 11:04:26;;;;;;;3.57;1.50;;;21.30;93.30;;;;;;4962443;28;20489;-89
2022/05/21 11:07:24;;;;;;;3.73;1.20;;;21.30;93.20;;;;;;4959985;28;20449;-89
2022/05/21 11:10:01;;;;;;;3.87;1.90;;;21.40;93.00;;;;;;4961816;28;20422;-88
2022/05/21 11:12:35;;;;;;;3.10;1.33;;;21.20;93.10;;;;;;4971502;28;20481;-89
2022/05/21 11:15:06;;;;;;;6.60;1.47;;;21.50;92.70;;;;;;4964946;28;20975;-88
2022/05/21 11:17:46;;;;;;;3.97;1.10;;;21.70;92.60;;;;;;4965214;28;20449;-89
2022/05/21 11:20:21;;;;;;;3.30;1.30;;;21.30;92.50;;;;;;4960475;28;20492;-88
2022/05/21 11:22:59;;;;;;;3.30;1.23;;;21.30;92.80;;;;;;4960100;28;20456;-88
2022/05/21 11:25:33;;;;;;;3.60;1.20;;;21.40;92.70;;;;;;4960072;28;20489;-87
2022/05/21 11:28:14;;;;;;;4.80;1.00;;;21.50;92.50;;;;;;4960258;28;20884;-88
2022/05/21 11:30:41;;;;;;;3.70;1.10;;;21.70;91.50;;;;;;4960561;28;20453;-87
2022/05/21 11:39:07;;;;;;;3.67;1.33;;;21.70;92.00;;;;;;4968013;28;20441;-89
2022/05/21 11:42:09;;;;;;;4.53;1.27;;;21.90;91.70;;;;;;4971269;28;20476;-88
2022/05/21 11:44:58;;;;;;;4.90;1.20;;;21.70;91.50;;;;;;4962191;28;20449;-89
2022/05/21 11:47:49;;;;;;;3.70;1.57;;;21.60;91.40;;;;;;4961231;29;20437;-88
2022/05/21 11:50:28;;;;;;;5.27;1.10;;;21.70;91.40;;;;;;4970254;29;20464;-89
2022/05/21 11:53:32;;;;;;;2.93;1.00;;;22.00;90.90;;;;;;4977905;28;20453;-88
2022/05/21 11:56:05;;;;;;;3.20;1.20;;;21.80;91.00;;;;;;4977607;28;20523;-87
2022/05/21 11:59:18;;;;;;;4.10;1.60;;;21.80;90.90;;;;;;4975004;28;20484;-88
2022/05/21 12:01:53;;;;;;;3.53;1.67;;;21.80;91.10;;;;;;4961361;28;20461;-88
2022/05/21 12:05:04;;;;;;;4.40;1.57;;;21.80;91.00;;;;;;4959335;28;20531;-88
2022/05/21 12:07:57;;;;;;;3.00;1.20;;;22.20;90.70;;;;;;4953378;28;20473;-89
2022/05/21 12:10:28;;;;;;;3.23;1.23;;;22.20;89.70;;;;;;4960962;28;20469;-87
2022/05/21 12:13:12;;;;;;;3.57;1.30;;;21.90;90.30;;;;;;4962620;28;20441;-88
2022/05/21 12:15:42;;;;;;;7.37;1.60;;;21.60;89.80;;;;;;4969324;29;20481;-87
2022/05/21 12:18:37;;;;;;;3.63;1.80;;;21.80;90.10;;;;;;4968631;28;20478;-88
2022/05/21 12:21:06;;;;;;;5.60;1.20;;;21.90;89.70;;;;;;4964014;28;20457;-88
2022/05/21 12:24:03;;;;;;;5.10;1.30;;;22.20;89.00;;;;;;4961417;28;20567;-88
2022/05/21 12:26:32;;;;;;;8.00;1.50;;;22.10;88.20;;;;;;4960100;28;20822;-88
2022/05/21 12:29:22;;;;;;;4.20;1.50;;;22.20;87.80;;;;;;4960080;28;20520;-88
2022/05/21 12:31:51;;;;;;;5.03;1.47;;;22.10;87.50;;;;;;4959519;28;20544;-89
2022/05/21 12:35:00;;;;;;;6.80;1.40;;;22.00;88.00;;;;;;4964946;28;20445;-90
2022/05/21 12:37:33;;;;;;;3.50;1.10;;;22.20;88.20;;;;;;4964478;28;20424;-87
2022/05/21 12:40:14;;;;;;;3.57;1.30;;;22.20;85.80;;;;;;4965851;29;20963;-88
2022/05/21 12:42:52;;;;;;;4.23;1.27;;;22.20;85.60;;;;;;4974746;28;20492;-87
2022/05/21 12:45:36;;;;;;;4.33;1.33;;;22.20;85.50;;;;;;4976264;28;20493;-88
2022/05/21 12:48:15;;;;;;;5.60;1.40;;;22.10;85.90;;;;;;4967268;28;20456;-87
2022/05/21 12:50:49;;;;;;;4.53;1.50;;;22.40;85.60;;;;;;4969118;28;20536;-88
2022/05/21 12:53:20;;;;;;;3.53;1.10;;;22.80;83.30;;;;;;4961912;28;20492;-88
2022/05/21 12:55:59;;;;;;;4.43;1.80;;;22.70;80.40;;;;;;4963424;28;20469;-88
2022/05/21 12:58:26;;;;;;;4.87;1.40;;;22.70;81.50;;;;;;4966782;28;20520;-87
2022/05/21 13:01:01;;;;;;;3.97;1.27;;;23.00;81.50;;;;;;4964955;28;20507;-89
2022/05/21 13:03:40;;;;;;;2.90;1.30;;;23.00;80.30;;;;;;4965686;29;20538;-89
2022/05/21 13:06:15;;;;;;;3.77;1.30;;;22.90;80.20;;;;;;4965001;28;20474;-88
2022/05/21 13:08:56;;;;;;;6.83;1.53;;;23.10;80.10;;;;;;4964551;28;20590;-89
2022/05/21 13:11:39;;;;;;;4.13;1.30;;;23.30;80.10;;;;;;4965150;28;20545;-89
2022/05/21 13:14:13;;;;;;;5.40;1.77;;;23.50;78.20;;;;;;4966319;28;20468;-88
2022/05/21 13:16:50;;;;;;;3.50;1.27;;;23.50;77.10;;;;;;4964637;29;20786;-89
2022/05/21 13:19:50;;;;;;;4.43;1.40;;;23.50;75.90;;;;;;4968417;28;20417;-89
2022/05/21 13:22:30;;;;;;;5.73;1.60;;;23.40;77.20;;;;;;4968496;28;20472;-89
2022/05/21 13:25:04;;;;;;;4.10;1.33;;;23.70;75.70;;;;;;4968518;28;20472;-89
2022/05/21 13:27:46;;;;;;;3.50;1.60;;;23.70;74.50;;;;;;4968230;28;20467;-89
2022/05/21 13:30:20;;;;;;;3.37;1.40;;;23.70;73.60;;;;;;4977460;28;20441;-88
2022/05/21 13:36:12;;;;;;;3.70;1.40;;;23.70;72.30;;;;;;4990259;23;20507;-85
2022/05/21 13:38:46;;;;;;;3.57;1.20;;;23.50;71.30;;;;;;4983928;28;20444;-87
2022/05/21 13:41:18;;;;;;;3.83;1.60;;;23.50;72.40;;;;;;4981366;28;20425;-87
2022/05/21 13:43:48;;;;;;;4.70;1.40;;;23.70;72.20;;;;;;4981373;28;20457;-87
2022/05/21 13:46:23;;;;;;;3.63;1.30;;;23.70;72.70;;;;;;4982658;28;20476;-87
2022/05/21 13:48:55;;;;;;;3.17;1.17;;;23.80;71.30;;;;;;4982445;28;20470;-87
2022/05/21 13:51:24;;;;;;;4.87;1.70;;;23.70;70.30;;;;;;4982742;28;20468;-87
2022/05/21 13:53:54;;;;;;;5.67;1.80;;;23.80;72.20;;;;;;4982746;28;20527;-85
2022/05/21 13:56:36;;;;;;;5.83;1.93;;;23.70;72.90;;;;;;4983520;28;20858;-87
2022/05/21 13:59:15;;;;;;;3.93;1.33;;;23.20;73.60;;;;;;4982724;28;20527;-86
2022/05/21 14:01:45;;;;;;;5.53;1.80;;;23.40;74.20;;;;;;4984652;28;20460;-85
2022/05/21 14:04:31;;;;;;;4.40;1.30;;;23.40;74.90;;;;;;4991291;28;20508;-87
2022/05/21 14:07:00;;;;;;;3.90;1.43;;;23.40;75.00;;;;;;4986486;28;20861;-87
2022/05/21 14:09:30;;;;;;;9.93;1.80;;;23.50;75.30;;;;;;4981728;28;20498;-87
2022/05/21 14:12:01;;;;;;;3.60;1.33;;;23.90;74.40;;;;;;4984156;28;20556;-87
2022/05/21 14:14:31;;;;;;;3.67;1.40;;;24.00;72.40;;;;;;4989633;28;20547;-87
2022/05/21 14:17:21;;;;;;;6.13;1.50;;;23.70;73.10;;;;;;4985931;28;20559;-87
2022/05/21 14:20:04;;;;;;;5.73;1.87;;;23.80;74.20;;;;;;4984292;28;20456;-88
2022/05/21 14:22:34;;;;;;;3.93;1.37;;;24.00;74.30;;;;;;4981907;28;20449;-87
2022/05/21 14:25:24;;;;;;;3.13;1.10;;;24.20;72.60;;;;;;4981737;28;20472;-87
2022/05/21 14:28:04;;;;;;;3.97;1.40;;;24.00;71.10;;;;;;4994234;28;20444;-88